sensor_id;sensor_type;location;lat;lon;timestamp;P1;durP1;ratioP1;P2;durP2;ratioP2
46845;SDS011;33947;46.804;134.252;2023-05-07T00:01:59;18.52;;;13.95;;
46845;SDS011;33947;46.804;134.252;2023-05-07T00:05:08;20.15;;;14.15;;
46845;SDS011;33947;46.804;134.252;2023-05-07T00:08:16;19.65;;;13.32;;
46845;SDS011;33947;46.804;134.252;2023-05-07T00:11:22;31.48;;;15.35;;
46845;SDS011;33947;46.804;134.252;2023-05-07T00:14:30;19.55;;;13.00;;
46845;SDS011;33947;46.804;134.252;2023-05-07T00:17:37;35.90;;;20.35;;
46845;SDS011;33947;46.804;134.252;2023-05-07T00:20:41;32.60;;;20.17;;
46845;SDS011;33947;46.804;134.252;2023-05-07T00:23:46;19.27;;;13.50;;
46845;SDS011;33947;46.804;134.252;2023-05-07T00:26:51;18.02;;;12.20;;
46845;SDS011;33947;46.804;134.252;2023-05-07T00:29:56;29.27;;;17.25;;
46845;SDS011;33947;46.804;134.252;2023-05-07T00:33:00;25.70;;;12.40;;
46845;SDS011;33947;46.804;134.252;2023-05-07T00:36:05;25.03;;;12.93;;
46845;SDS011;33947;46.804;134.252;2023-05-07T00:39:10;26.45;;;12.85;;
46845;SDS011;33947;46.804;134.252;2023-05-07T00:42:14;19.80;;;11.73;;
46845;SDS011;33947;46.804;134.252;2023-05-07T00:45:19;20.05;;;11.32;;
46845;SDS011;33947;46.804;134.252;2023-05-07T00:48:24;16.60;;;11.32;;
46845;SDS011;33947;46.804;134.252;2023-05-07T00:52:40;16.58;;;10.63;;
46845;SDS011;33947;46.804;134.252;2023-05-07T00:55:50;17.33;;;11.85;;
46845;SDS011;33947;46.804;134.252;2023-05-07T00:58:56;17.98;;;11.27;;
46845;SDS011;33947;46.804;134.252;2023-05-07T01:02:03;20.45;;;11.40;;
46845;SDS011;33947;46.804;134.252;2023-05-07T01:05:15;20.55;;;11.57;;
46845;SDS011;33947;46.804;134.252;2023-05-07T01:08:27;33.83;;;12.23;;
46845;SDS011;33947;46.804;134.252;2023-05-07T01:11:42;21.63;;;12.13;;
46845;SDS011;33947;46.804;134.252;2023-05-07T01:14:50;15.43;;;10.55;;
46845;SDS011;33947;46.804;134.252;2023-05-07T01:17:59;14.82;;;10.30;;
46845;SDS011;33947;46.804;134.252;2023-05-07T01:21:12;12.93;;;9.63;;
46845;SDS011;33947;46.804;134.252;2023-05-07T01:24:21;20.45;;;10.18;;
46845;SDS011;33947;46.804;134.252;2023-05-07T01:27:28;11.68;;;8.82;;
46845;SDS011;33947;46.804;134.252;2023-05-07T01:34:31;13.77;;;8.75;;
46845;SDS011;33947;46.804;134.252;2023-05-07T01:37:43;14.57;;;9.50;;
46845;SDS011;33947;46.804;134.252;2023-05-07T01:40:54;15.82;;;9.00;;
46845;SDS011;33947;46.804;134.252;2023-05-07T01:44:12;12.40;;;9.38;;
46845;SDS011;33947;46.804;134.252;2023-05-07T01:47:30;13.98;;;8.90;;
46845;SDS011;33947;46.804;134.252;2023-05-07T01:50:38;18.13;;;10.07;;
46845;SDS011;33947;46.804;134.252;2023-05-07T01:53:43;11.52;;;8.73;;
46845;SDS011;33947;46.804;134.252;2023-05-07T01:56:56;16.65;;;8.93;;
46845;SDS011;33947;46.804;134.252;2023-05-07T02:00:04;20.20;;;9.63;;
46845;SDS011;33947;46.804;134.252;2023-05-07T02:03:17;12.88;;;8.27;;
46845;SDS011;33947;46.804;134.252;2023-05-07T02:06:31;11.75;;;9.05;;
46845;SDS011;33947;46.804;134.252;2023-05-07T02:09:39;19.08;;;9.52;;
46845;SDS011;33947;46.804;134.252;2023-05-07T02:12:50;13.73;;;9.23;;
46845;SDS011;33947;46.804;134.252;2023-05-07T02:15:55;13.68;;;8.88;;
46845;SDS011;33947;46.804;134.252;2023-05-07T02:19:04;12.00;;;9.15;;
46845;SDS011;33947;46.804;134.252;2023-05-07T02:22:09;12.52;;;8.45;;
46845;SDS011;33947;46.804;134.252;2023-05-07T02:25:14;22.02;;;8.68;;
46845;SDS011;33947;46.804;134.252;2023-05-07T02:28:18;11.82;;;9.38;;
46845;SDS011;33947;46.804;134.252;2023-05-07T02:31:45;13.75;;;10.02;;
46845;SDS011;33947;46.804;134.252;2023-05-07T02:34:53;17.00;;;9.77;;
46845;SDS011;33947;46.804;134.252;2023-05-07T02:37:57;12.38;;;9.20;;
46845;SDS011;33947;46.804;134.252;2023-05-07T02:41:02;14.73;;;9.20;;
46845;SDS011;33947;46.804;134.252;2023-05-07T02:44:07;15.27;;;9.25;;
46845;SDS011;33947;46.804;134.252;2023-05-07T02:47:16;12.98;;;8.60;;
46845;SDS011;33947;46.804;134.252;2023-05-07T02:50:20;14.18;;;10.23;;
46845;SDS011;33947;46.804;134.252;2023-05-07T02:53:29;22.67;;;15.75;;
46845;SDS011;33947;46.804;134.252;2023-05-07T02:56:36;12.65;;;9.00;;
46845;SDS011;33947;46.804;134.252;2023-05-07T02:59:52;16.00;;;8.95;;
46845;SDS011;33947;46.804;134.252;2023-05-07T03:03:22;12.05;;;8.77;;
46845;SDS011;33947;46.804;134.252;2023-05-07T03:06:43;12.50;;;8.75;;
46845;SDS011;33947;46.804;134.252;2023-05-07T03:10:11;14.57;;;9.30;;
46845;SDS011;33947;46.804;134.252;2023-05-07T03:13:19;16.98;;;9.15;;
46845;SDS011;33947;46.804;134.252;2023-05-07T03:16:49;11.80;;;8.77;;
46845;SDS011;33947;46.804;134.252;2023-05-07T03:20:02;13.30;;;9.57;;
46845;SDS011;33947;46.804;134.252;2023-05-07T03:23:20;15.88;;;9.50;;
46845;SDS011;33947;46.804;134.252;2023-05-07T03:26:37;14.50;;;9.23;;
46845;SDS011;33947;46.804;134.252;2023-05-07T03:29:51;22.98;;;10.25;;
46845;SDS011;33947;46.804;134.252;2023-05-07T03:33:11;11.60;;;9.38;;
46845;SDS011;33947;46.804;134.252;2023-05-07T03:36:23;18.38;;;11.88;;
46845;SDS011;33947;46.804;134.252;2023-05-07T03:39:50;16.38;;;10.25;;
46845;SDS011;33947;46.804;134.252;2023-05-07T03:43:03;15.15;;;10.35;;
46845;SDS011;33947;46.804;134.252;2023-05-07T03:46:40;13.80;;;10.68;;
46845;SDS011;33947;46.804;134.252;2023-05-07T03:50:15;15.20;;;10.73;;
46845;SDS011;33947;46.804;134.252;2023-05-07T03:53:37;20.70;;;12.68;;
46845;SDS011;33947;46.804;134.252;2023-05-07T03:56:59;16.30;;;10.75;;
46845;SDS011;33947;46.804;134.252;2023-05-07T04:05:19;16.02;;;11.90;;
46845;SDS011;33947;46.804;134.252;2023-05-07T04:08:27;17.05;;;10.27;;
46845;SDS011;33947;46.804;134.252;2023-05-07T04:11:33;13.75;;;10.38;;
46845;SDS011;33947;46.804;134.252;2023-05-07T04:14:44;18.92;;;10.85;;
46845;SDS011;33947;46.804;134.252;2023-05-07T04:17:50;16.27;;;10.32;;
46845;SDS011;33947;46.804;134.252;2023-05-07T04:21:07;25.95;;;12.23;;
46845;SDS011;33947;46.804;134.252;2023-05-07T04:24:27;27.80;;;18.80;;
46845;SDS011;33947;46.804;134.252;2023-05-07T04:27:36;26.55;;;18.38;;
46845;SDS011;33947;46.804;134.252;2023-05-07T04:30:41;29.38;;;16.52;;
46845;SDS011;33947;46.804;134.252;2023-05-07T04:36:51;18.92;;;13.30;;
46845;SDS011;33947;46.804;134.252;2023-05-07T04:39:57;29.80;;;15.60;;
46845;SDS011;33947;46.804;134.252;2023-05-07T04:43:05;19.73;;;16.13;;
46845;SDS011;33947;46.804;134.252;2023-05-07T04:46:19;21.08;;;16.35;;
46845;SDS011;33947;46.804;134.252;2023-05-07T04:49:24;20.60;;;16.25;;
46845;SDS011;33947;46.804;134.252;2023-05-07T04:52:34;25.60;;;17.25;;
46845;SDS011;33947;46.804;134.252;2023-05-07T04:55:39;27.27;;;19.73;;
46845;SDS011;33947;46.804;134.252;2023-05-07T04:58:44;25.40;;;20.40;;
46845;SDS011;33947;46.804;134.252;2023-05-07T05:01:49;25.13;;;17.52;;
46845;SDS011;33947;46.804;134.252;2023-05-07T05:05:47;21.77;;;16.10;;
46845;SDS011;33947;46.804;134.252;2023-05-07T05:09:44;28.77;;;17.08;;
46845;SDS011;33947;46.804;134.252;2023-05-07T05:12:49;26.02;;;17.17;;
46845;SDS011;33947;46.804;134.252;2023-05-07T05:15:58;35.22;;;17.27;;
46845;SDS011;33947;46.804;134.252;2023-05-07T05:19:06;27.10;;;18.25;;
46845;SDS011;33947;46.804;134.252;2023-05-07T05:22:13;23.38;;;13.93;;
46845;SDS011;33947;46.804;134.252;2023-05-07T05:25:18;15.73;;;12.05;;
46845;SDS011;33947;46.804;134.252;2023-05-07T05:28:23;16.00;;;11.38;;
46845;SDS011;33947;46.804;134.252;2023-05-07T05:31:34;14.73;;;12.27;;
46845;SDS011;33947;46.804;134.252;2023-05-07T05:34:41;16.63;;;11.90;;
46845;SDS011;33947;46.804;134.252;2023-05-07T05:37:46;33.38;;;20.00;;
46845;SDS011;33947;46.804;134.252;2023-05-07T05:40:53;26.20;;;19.05;;
46845;SDS011;33947;46.804;134.252;2023-05-07T05:43:58;22.20;;;17.08;;
46845;SDS011;33947;46.804;134.252;2023-05-07T05:47:05;21.33;;;14.25;;
46845;SDS011;33947;46.804;134.252;2023-05-07T05:50:10;19.67;;;15.23;;
46845;SDS011;33947;46.804;134.252;2023-05-07T05:53:17;22.52;;;14.80;;
46845;SDS011;33947;46.804;134.252;2023-05-07T05:56:22;21.45;;;14.73;;
46845;SDS011;33947;46.804;134.252;2023-05-07T05:59:27;20.13;;;14.70;;
46845;SDS011;33947;46.804;134.252;2023-05-07T06:02:32;24.60;;;11.82;;
46845;SDS011;33947;46.804;134.252;2023-05-07T06:10:32;25.98;;;11.18;;
46845;SDS011;33947;46.804;134.252;2023-05-07T06:14:49;20.20;;;11.00;;
46845;SDS011;33947;46.804;134.252;2023-05-07T06:18:22;22.88;;;13.15;;
46845;SDS011;33947;46.804;134.252;2023-05-07T06:22:04;18.67;;;13.60;;
46845;SDS011;33947;46.804;134.252;2023-05-07T06:25:30;19.30;;;13.40;;
46845;SDS011;33947;46.804;134.252;2023-05-07T06:28:42;19.88;;;14.13;;
46845;SDS011;33947;46.804;134.252;2023-05-07T06:32:05;20.92;;;13.38;;
46845;SDS011;33947;46.804;134.252;2023-05-07T06:35:17;20.63;;;13.40;;
46845;SDS011;33947;46.804;134.252;2023-05-07T06:38:21;25.35;;;13.95;;
46845;SDS011;33947;46.804;134.252;2023-05-07T06:41:58;25.92;;;12.40;;
46845;SDS011;33947;46.804;134.252;2023-05-07T06:45:15;14.77;;;9.43;;
46845;SDS011;33947;46.804;134.252;2023-05-07T06:48:34;14.50;;;9.48;;
46845;SDS011;33947;46.804;134.252;2023-05-07T06:51:43;21.80;;;16.08;;
46845;SDS011;33947;46.804;134.252;2023-05-07T06:55:06;18.67;;;12.20;;
46845;SDS011;33947;46.804;134.252;2023-05-07T06:58:46;23.63;;;13.05;;
46845;SDS011;33947;46.804;134.252;2023-05-07T07:01:53;17.15;;;11.60;;
46845;SDS011;33947;46.804;134.252;2023-05-07T07:05:45;18.88;;;10.25;;
46845;SDS011;33947;46.804;134.252;2023-05-07T07:09:36;13.70;;;8.95;;
46845;SDS011;33947;46.804;134.252;2023-05-07T07:12:52;14.05;;;10.15;;
46845;SDS011;33947;46.804;134.252;2023-05-07T07:15:57;12.33;;;9.77;;
46845;SDS011;33947;46.804;134.252;2023-05-07T07:19:02;16.75;;;9.82;;
46845;SDS011;33947;46.804;134.252;2023-05-07T07:22:07;14.02;;;9.00;;
46845;SDS011;33947;46.804;134.252;2023-05-07T07:25:15;16.30;;;11.32;;
46845;SDS011;33947;46.804;134.252;2023-05-07T07:28:20;15.52;;;11.65;;
46845;SDS011;33947;46.804;134.252;2023-05-07T07:31:28;29.48;;;16.85;;
46845;SDS011;33947;46.804;134.252;2023-05-07T07:34:36;26.60;;;17.35;;
46845;SDS011;33947;46.804;134.252;2023-05-07T07:37:46;32.47;;;13.38;;
46845;SDS011;33947;46.804;134.252;2023-05-07T07:40:55;17.50;;;10.90;;
46845;SDS011;33947;46.804;134.252;2023-05-07T07:44:07;19.05;;;12.25;;
46845;SDS011;33947;46.804;134.252;2023-05-07T07:47:26;22.63;;;13.43;;
46845;SDS011;33947;46.804;134.252;2023-05-07T07:50:36;20.05;;;12.20;;
46845;SDS011;33947;46.804;134.252;2023-05-07T07:53:50;19.90;;;13.27;;
46845;SDS011;33947;46.804;134.252;2023-05-07T07:57:03;27.02;;;17.80;;
46845;SDS011;33947;46.804;134.252;2023-05-07T08:00:12;20.35;;;15.43;;
46845;SDS011;33947;46.804;134.252;2023-05-07T08:03:19;19.67;;;14.45;;
46845;SDS011;33947;46.804;134.252;2023-05-07T08:06:28;32.05;;;16.70;;
46845;SDS011;33947;46.804;134.252;2023-05-07T08:09:37;20.08;;;12.25;;
46845;SDS011;33947;46.804;134.252;2023-05-07T08:12:45;18.02;;;12.15;;
46845;SDS011;33947;46.804;134.252;2023-05-07T08:15:50;15.18;;;11.38;;
46845;SDS011;33947;46.804;134.252;2023-05-07T08:19:04;19.65;;;11.38;;
46845;SDS011;33947;46.804;134.252;2023-05-07T08:22:11;27.48;;;13.15;;
46845;SDS011;33947;46.804;134.252;2023-05-07T08:25:16;22.23;;;13.10;;
46845;SDS011;33947;46.804;134.252;2023-05-07T08:28:21;21.42;;;14.23;;
46845;SDS011;33947;46.804;134.252;2023-05-07T08:31:28;29.38;;;15.10;;
46845;SDS011;33947;46.804;134.252;2023-05-07T08:34:33;22.70;;;14.77;;
46845;SDS011;33947;46.804;134.252;2023-05-07T08:37:40;19.77;;;14.38;;
46845;SDS011;33947;46.804;134.252;2023-05-07T08:40:45;21.05;;;14.57;;
46845;SDS011;33947;46.804;134.252;2023-05-07T08:43:57;28.48;;;15.02;;
46845;SDS011;33947;46.804;134.252;2023-05-07T08:47:11;19.88;;;14.57;;
46845;SDS011;33947;46.804;134.252;2023-05-07T08:50:20;40.97;;;16.05;;
46845;SDS011;33947;46.804;134.252;2023-05-07T08:53:26;28.77;;;15.52;;
46845;SDS011;33947;46.804;134.252;2023-05-07T08:56:30;25.73;;;15.23;;
46845;SDS011;33947;46.804;134.252;2023-05-07T08:59:35;38.78;;;16.85;;
46845;SDS011;33947;46.804;134.252;2023-05-07T09:02:40;21.27;;;14.57;;
46845;SDS011;33947;46.804;134.252;2023-05-07T09:05:48;24.23;;;15.15;;
46845;SDS011;33947;46.804;134.252;2023-05-07T09:08:54;25.80;;;16.35;;
46845;SDS011;33947;46.804;134.252;2023-05-07T09:12:05;31.38;;;16.95;;
46845;SDS011;33947;46.804;134.252;2023-05-07T09:15:23;36.08;;;17.98;;
46845;SDS011;33947;46.804;134.252;2023-05-07T09:18:29;27.90;;;17.40;;
46845;SDS011;33947;46.804;134.252;2023-05-07T09:21:37;26.92;;;16.63;;
46845;SDS011;33947;46.804;134.252;2023-05-07T09:24:50;23.90;;;15.70;;
46845;SDS011;33947;46.804;134.252;2023-05-07T09:28:00;23.95;;;16.83;;
46845;SDS011;33947;46.804;134.252;2023-05-07T09:31:10;33.53;;;16.45;;
46845;SDS011;33947;46.804;134.252;2023-05-07T09:34:25;27.67;;;16.75;;
46845;SDS011;33947;46.804;134.252;2023-05-07T09:37:30;31.05;;;17.65;;
46845;SDS011;33947;46.804;134.252;2023-05-07T09:40:36;31.42;;;16.80;;
46845;SDS011;33947;46.804;134.252;2023-05-07T09:43:45;29.23;;;17.58;;
46845;SDS011;33947;46.804;134.252;2023-05-07T09:46:56;35.08;;;18.02;;
46845;SDS011;33947;46.804;134.252;2023-05-07T09:50:10;30.33;;;17.50;;
46845;SDS011;33947;46.804;134.252;2023-05-07T09:53:19;39.55;;;21.05;;
46845;SDS011;33947;46.804;134.252;2023-05-07T09:56:29;77.72;;;28.63;;
46845;SDS011;33947;46.804;134.252;2023-05-07T09:59:37;70.95;;;29.58;;
46845;SDS011;33947;46.804;134.252;2023-05-07T10:02:48;71.50;;;28.77;;
46845;SDS011;33947;46.804;134.252;2023-05-07T10:06:03;84.57;;;25.70;;
46845;SDS011;33947;46.804;134.252;2023-05-07T10:09:16;45.03;;;21.45;;
46845;SDS011;33947;46.804;134.252;2023-05-07T10:12:35;50.17;;;22.02;;
46845;SDS011;33947;46.804;134.252;2023-05-07T10:15:57;51.53;;;22.00;;
46845;SDS011;33947;46.804;134.252;2023-05-07T10:19:25;54.67;;;22.90;;
46845;SDS011;33947;46.804;134.252;2023-05-07T10:22:53;56.92;;;22.88;;
46845;SDS011;33947;46.804;134.252;2023-05-07T10:26:11;56.80;;;22.90;;
46845;SDS011;33947;46.804;134.252;2023-05-07T10:32:48;68.60;;;32.67;;
46845;SDS011;33947;46.804;134.252;2023-05-07T10:36:03;62.17;;;27.02;;
46845;SDS011;33947;46.804;134.252;2023-05-07T10:39:20;76.20;;;28.52;;
46845;SDS011;33947;46.804;134.252;2023-05-07T10:42:30;63.00;;;28.85;;
46845;SDS011;33947;46.804;134.252;2023-05-07T11:12:12;55.17;;;29.08;;
46845;SDS011;33947;46.804;134.252;2023-05-07T11:15:33;70.93;;;29.48;;
46845;SDS011;33947;46.804;134.252;2023-05-07T11:18:48;59.78;;;30.73;;
46845;SDS011;33947;46.804;134.252;2023-05-07T11:22:03;66.18;;;29.50;;
46845;SDS011;33947;46.804;134.252;2023-05-07T11:25:39;54.42;;;28.65;;
46845;SDS011;33947;46.804;134.252;2023-05-07T11:28:53;74.97;;;30.88;;
46845;SDS011;33947;46.804;134.252;2023-05-07T11:32:02;85.05;;;35.08;;
46845;SDS011;33947;46.804;134.252;2023-05-07T11:35:22;88.15;;;32.92;;
46845;SDS011;33947;46.804;134.252;2023-05-07T11:38:35;75.57;;;34.78;;
46845;SDS011;33947;46.804;134.252;2023-05-07T11:41:44;77.55;;;32.92;;
46845;SDS011;33947;46.804;134.252;2023-05-07T11:44:48;75.87;;;35.33;;
46845;SDS011;33947;46.804;134.252;2023-05-07T11:47:55;77.93;;;33.15;;
46845;SDS011;33947;46.804;134.252;2023-05-07T11:51:04;55.13;;;26.30;;
46845;SDS011;33947;46.804;134.252;2023-05-07T11:58:20;51.42;;;24.38;;
46845;SDS011;33947;46.804;134.252;2023-05-07T12:01:26;59.78;;;26.17;;
46845;SDS011;33947;46.804;134.252;2023-05-07T12:04:31;51.35;;;24.23;;
46845;SDS011;33947;46.804;134.252;2023-05-07T12:07:36;52.22;;;26.23;;
46845;SDS011;33947;46.804;134.252;2023-05-07T12:10:45;51.13;;;28.83;;
46845;SDS011;33947;46.804;134.252;2023-05-07T12:13:54;62.70;;;33.85;;
46845;SDS011;33947;46.804;134.252;2023-05-07T12:17:01;32.63;;;20.75;;
46845;SDS011;33947;46.804;134.252;2023-05-07T12:20:07;64.90;;;27.08;;
46845;SDS011;33947;46.804;134.252;2023-05-07T12:26:18;37.40;;;22.88;;
46845;SDS011;33947;46.804;134.252;2023-05-07T12:29:26;34.05;;;20.58;;
46845;SDS011;33947;46.804;134.252;2023-05-07T12:32:31;38.47;;;20.98;;
46845;SDS011;33947;46.804;134.252;2023-05-07T12:35:40;42.03;;;22.75;;
46845;SDS011;33947;46.804;134.252;2023-05-07T12:38:49;28.40;;;17.45;;
46845;SDS011;33947;46.804;134.252;2023-05-07T12:41:55;32.95;;;18.08;;
46845;SDS011;33947;46.804;134.252;2023-05-07T12:45:08;30.27;;;18.35;;
46845;SDS011;33947;46.804;134.252;2023-05-07T12:48:20;31.83;;;20.10;;
46845;SDS011;33947;46.804;134.252;2023-05-07T12:51:30;48.38;;;25.00;;
46845;SDS011;33947;46.804;134.252;2023-05-07T12:54:37;57.95;;;29.25;;
46845;SDS011;33947;46.804;134.252;2023-05-07T12:57:48;58.28;;;28.40;;
46845;SDS011;33947;46.804;134.252;2023-05-07T13:01:00;49.22;;;25.55;;
46845;SDS011;33947;46.804;134.252;2023-05-07T13:04:27;44.30;;;22.08;;
46845;SDS011;33947;46.804;134.252;2023-05-07T13:07:34;44.33;;;23.77;;
46845;SDS011;33947;46.804;134.252;2023-05-07T13:10:43;43.92;;;24.35;;
46845;SDS011;33947;46.804;134.252;2023-05-07T13:13:49;36.38;;;22.88;;
46845;SDS011;33947;46.804;134.252;2023-05-07T13:16:54;40.25;;;21.55;;
46845;SDS011;33947;46.804;134.252;2023-05-07T13:19:59;38.30;;;21.17;;
46845;SDS011;33947;46.804;134.252;2023-05-07T13:23:05;32.58;;;20.92;;
46845;SDS011;33947;46.804;134.252;2023-05-07T13:26:09;39.67;;;21.10;;
46845;SDS011;33947;46.804;134.252;2023-05-07T13:29:28;38.33;;;20.88;;
46845;SDS011;33947;46.804;134.252;2023-05-07T13:32:38;39.08;;;20.10;;
46845;SDS011;33947;46.804;134.252;2023-05-07T13:35:42;40.60;;;23.40;;
46845;SDS011;33947;46.804;134.252;2023-05-07T13:38:48;32.38;;;20.52;;
46845;SDS011;33947;46.804;134.252;2023-05-07T13:41:55;31.90;;;18.40;;
46845;SDS011;33947;46.804;134.252;2023-05-07T13:45:02;39.58;;;19.20;;
46845;SDS011;33947;46.804;134.252;2023-05-07T13:48:12;34.40;;;19.05;;
46845;SDS011;33947;46.804;134.252;2023-05-07T13:51:17;45.95;;;21.92;;
46845;SDS011;33947;46.804;134.252;2023-05-07T13:54:23;43.70;;;23.15;;
46845;SDS011;33947;46.804;134.252;2023-05-07T13:57:29;40.67;;;22.63;;
46845;SDS011;33947;46.804;134.252;2023-05-07T14:00:35;40.20;;;22.17;;
46845;SDS011;33947;46.804;134.252;2023-05-07T14:03:40;38.55;;;20.85;;
46845;SDS011;33947;46.804;134.252;2023-05-07T14:06:44;49.35;;;23.98;;
46845;SDS011;33947;46.804;134.252;2023-05-07T14:09:49;58.40;;;26.25;;
46845;SDS011;33947;46.804;134.252;2023-05-07T14:12:53;44.90;;;24.77;;
46845;SDS011;33947;46.804;134.252;2023-05-07T14:15:58;61.63;;;28.90;;
46845;SDS011;33947;46.804;134.252;2023-05-07T14:19:02;40.20;;;23.45;;
46845;SDS011;33947;46.804;134.252;2023-05-07T14:22:06;39.33;;;23.40;;
46845;SDS011;33947;46.804;134.252;2023-05-07T14:25:11;49.13;;;25.55;;
46845;SDS011;33947;46.804;134.252;2023-05-07T14:28:20;56.55;;;27.42;;
46845;SDS011;33947;46.804;134.252;2023-05-07T14:31:24;46.97;;;25.13;;
46845;SDS011;33947;46.804;134.252;2023-05-07T14:34:32;52.08;;;26.85;;
46845;SDS011;33947;46.804;134.252;2023-05-07T14:37:36;46.90;;;23.75;;
46845;SDS011;33947;46.804;134.252;2023-05-07T14:40:40;61.72;;;28.67;;
46845;SDS011;33947;46.804;134.252;2023-05-07T14:43:44;63.72;;;32.58;;
46845;SDS011;33947;46.804;134.252;2023-05-07T14:46:52;69.28;;;27.95;;
46845;SDS011;33947;46.804;134.252;2023-05-07T14:49:57;68.80;;;31.02;;
46845;SDS011;33947;46.804;134.252;2023-05-07T14:53:01;57.38;;;29.63;;
46845;SDS011;33947;46.804;134.252;2023-05-07T14:56:05;57.22;;;30.27;;
46845;SDS011;33947;46.804;134.252;2023-05-07T14:59:12;49.40;;;26.60;;
46845;SDS011;33947;46.804;134.252;2023-05-07T15:02:40;59.72;;;28.42;;
46845;SDS011;33947;46.804;134.252;2023-05-07T15:05:50;53.30;;;29.73;;
46845;SDS011;33947;46.804;134.252;2023-05-07T15:08:55;63.50;;;29.17;;
46845;SDS011;33947;46.804;134.252;2023-05-07T15:12:00;54.97;;;28.67;;
46845;SDS011;33947;46.804;134.252;2023-05-07T15:15:05;64.20;;;29.75;;
46845;SDS011;33947;46.804;134.252;2023-05-07T15:18:10;60.55;;;30.00;;
46845;SDS011;33947;46.804;134.252;2023-05-07T15:21:15;70.67;;;29.10;;
46845;SDS011;33947;46.804;134.252;2023-05-07T15:24:19;59.70;;;28.70;;
46845;SDS011;33947;46.804;134.252;2023-05-07T15:27:23;60.13;;;29.30;;
46845;SDS011;33947;46.804;134.252;2023-05-07T15:30:30;55.97;;;28.25;;
46845;SDS011;33947;46.804;134.252;2023-05-07T15:33:35;53.05;;;26.95;;
46845;SDS011;33947;46.804;134.252;2023-05-07T15:36:40;54.53;;;26.58;;
46845;SDS011;33947;46.804;134.252;2023-05-07T15:39:46;48.15;;;26.70;;
46845;SDS011;33947;46.804;134.252;2023-05-07T15:42:54;49.78;;;26.60;;
46845;SDS011;33947;46.804;134.252;2023-05-07T15:45:59;49.85;;;26.15;;
46845;SDS011;33947;46.804;134.252;2023-05-07T15:49:03;50.70;;;25.25;;
46845;SDS011;33947;46.804;134.252;2023-05-07T15:52:10;53.30;;;24.92;;
46845;SDS011;33947;46.804;134.252;2023-05-07T15:55:17;53.00;;;27.30;;
46845;SDS011;33947;46.804;134.252;2023-05-07T15:58:29;44.92;;;25.67;;
46845;SDS011;33947;46.804;134.252;2023-05-07T16:04:54;49.90;;;26.92;;
46845;SDS011;33947;46.804;134.252;2023-05-07T16:07:58;50.58;;;25.55;;
46845;SDS011;33947;46.804;134.252;2023-05-07T16:11:02;47.35;;;25.52;;
46845;SDS011;33947;46.804;134.252;2023-05-07T16:14:10;50.33;;;24.20;;
46845;SDS011;33947;46.804;134.252;2023-05-07T16:17:14;72.55;;;32.17;;
46845;SDS011;33947;46.804;134.252;2023-05-07T16:20:19;77.55;;;32.28;;
46845;SDS011;33947;46.804;134.252;2023-05-07T16:23:32;69.55;;;28.42;;
46845;SDS011;33947;46.804;134.252;2023-05-07T16:26:39;54.90;;;26.10;;
46845;SDS011;33947;46.804;134.252;2023-05-07T16:29:47;52.17;;;25.17;;
46845;SDS011;33947;46.804;134.252;2023-05-07T16:32:54;56.60;;;23.88;;
46845;SDS011;33947;46.804;134.252;2023-05-07T16:35:58;51.70;;;23.45;;
46845;SDS011;33947;46.804;134.252;2023-05-07T16:39:03;46.53;;;23.30;;
46845;SDS011;33947;46.804;134.252;2023-05-07T16:42:08;45.38;;;22.38;;
46845;SDS011;33947;46.804;134.252;2023-05-07T16:45:12;43.78;;;22.33;;
46845;SDS011;33947;46.804;134.252;2023-05-07T16:48:18;50.88;;;22.73;;
46845;SDS011;33947;46.804;134.252;2023-05-07T16:51:23;54.33;;;23.27;;
46845;SDS011;33947;46.804;134.252;2023-05-07T16:54:30;49.05;;;21.58;;
46845;SDS011;33947;46.804;134.252;2023-05-07T16:57:34;46.67;;;22.48;;
46845;SDS011;33947;46.804;134.252;2023-05-07T17:00:38;42.75;;;22.23;;
46845;SDS011;33947;46.804;134.252;2023-05-07T17:03:45;47.88;;;23.20;;
46845;SDS011;33947;46.804;134.252;2023-05-07T17:06:50;48.97;;;23.70;;
46845;SDS011;33947;46.804;134.252;2023-05-07T17:10:01;47.80;;;21.77;;
46845;SDS011;33947;46.804;134.252;2023-05-07T17:13:06;61.83;;;23.20;;
46845;SDS011;33947;46.804;134.252;2023-05-07T17:16:10;41.72;;;22.08;;
46845;SDS011;33947;46.804;134.252;2023-05-07T17:19:14;40.50;;;20.45;;
46845;SDS011;33947;46.804;134.252;2023-05-07T17:22:19;43.72;;;20.10;;
46845;SDS011;33947;46.804;134.252;2023-05-07T17:25:24;38.63;;;20.92;;
46845;SDS011;33947;46.804;134.252;2023-05-07T17:28:30;43.58;;;20.83;;
46845;SDS011;33947;46.804;134.252;2023-05-07T17:31:40;40.95;;;19.45;;
46845;SDS011;33947;46.804;134.252;2023-05-07T17:34:45;47.85;;;20.80;;
46845;SDS011;33947;46.804;134.252;2023-05-07T17:37:50;33.90;;;19.48;;
46845;SDS011;33947;46.804;134.252;2023-05-07T17:40:54;31.08;;;17.75;;
46845;SDS011;33947;46.804;134.252;2023-05-07T17:43:58;33.47;;;18.58;;
46845;SDS011;33947;46.804;134.252;2023-05-07T17:47:05;34.33;;;18.30;;
46845;SDS011;33947;46.804;134.252;2023-05-07T17:50:09;33.30;;;18.77;;
46845;SDS011;33947;46.804;134.252;2023-05-07T17:53:15;34.13;;;19.75;;
46845;SDS011;33947;46.804;134.252;2023-05-07T17:56:19;33.17;;;20.17;;
46845;SDS011;33947;46.804;134.252;2023-05-07T17:59:23;32.88;;;17.88;;
46845;SDS011;33947;46.804;134.252;2023-05-07T18:02:27;34.50;;;19.65;;
46845;SDS011;33947;46.804;134.252;2023-05-07T18:05:35;36.10;;;19.15;;
46845;SDS011;33947;46.804;134.252;2023-05-07T18:08:40;28.92;;;17.77;;
46845;SDS011;33947;46.804;134.252;2023-05-07T18:11:44;23.48;;;16.65;;
46845;SDS011;33947;46.804;134.252;2023-05-07T18:14:48;24.40;;;17.08;;
46845;SDS011;33947;46.804;134.252;2023-05-07T18:17:54;25.42;;;15.57;;
46845;SDS011;33947;46.804;134.252;2023-05-07T18:20:58;24.33;;;16.20;;
46845;SDS011;33947;46.804;134.252;2023-05-07T18:24:03;23.20;;;14.60;;
46845;SDS011;33947;46.804;134.252;2023-05-07T18:27:09;22.33;;;14.68;;
46845;SDS011;33947;46.804;134.252;2023-05-07T18:30:15;26.23;;;15.23;;
46845;SDS011;33947;46.804;134.252;2023-05-07T18:33:20;22.20;;;14.27;;
46845;SDS011;33947;46.804;134.252;2023-05-07T18:36:24;21.60;;;13.55;;
46845;SDS011;33947;46.804;134.252;2023-05-07T18:39:36;21.27;;;14.35;;
46845;SDS011;33947;46.804;134.252;2023-05-07T18:42:40;21.98;;;13.75;;
46845;SDS011;33947;46.804;134.252;2023-05-07T18:45:48;23.55;;;15.27;;
46845;SDS011;33947;46.804;134.252;2023-05-07T18:48:53;23.85;;;14.93;;
46845;SDS011;33947;46.804;134.252;2023-05-07T18:51:57;27.45;;;15.13;;
46845;SDS011;33947;46.804;134.252;2023-05-07T18:55:05;24.88;;;15.07;;
46845;SDS011;33947;46.804;134.252;2023-05-07T18:58:09;27.60;;;14.27;;
46845;SDS011;33947;46.804;134.252;2023-05-07T19:01:16;26.45;;;14.52;;